ADDS METAR Data INFO
IDs: Format: Raw Decoded Include TAF

Data at: 1133 UTC 17 Jul 2018

KMYZ 171115Z AUTO 12007KT 10SM CLR 23/21 A3004 RMK AO2
KMYZ 171055Z AUTO 13009KT 10SM CLR 23/21 A3003 RMK AO2 LTG DSNT W
KMYZ 171035Z AUTO 11005KT 10SM CLR 23/21 A3004 RMK AO2
KMYZ 171015Z AUTO 10004KT 10SM CLR 23/22 A3006 RMK AO2
KMYZ 170955Z AUTO 09003KT 10SM CLR 23/22 A3005 RMK AO2
KMYZ 170935Z AUTO 11005KT 10SM CLR 23/22 A3004 RMK AO2
KMYZ 170915Z AUTO 11004KT 10SM CLR 23/22 A3005 RMK AO2 LTG DSNT W
KMYZ 170855Z AUTO 11004KT 10SM CLR 23/22 A3004 RMK AO2
KMYZ 170835Z AUTO 12004KT 10SM CLR 23/22 A3004 RMK AO2
KMYZ 170815Z AUTO 11004KT 10SM CLR 23/22 A3004 RMK AO2
KMYZ 170755Z AUTO 11004KT 10SM CLR 23/22 A3005 RMK AO2
KMYZ 170735Z AUTO 09003KT 10SM SCT060 SCT080 SCT100 24/22 A3006 RMK AO2
KMYZ 170715Z AUTO 12003KT 10SM SCT060 BKN080 24/22 A3005 RMK AO2
KMYZ 170655Z AUTO 09003KT 10SM SCT065 BKN070 24/22 A3006 RMK AO2
KMYZ 170635Z AUTO 11003KT 10SM BKN065 23/22 A3006 RMK AO2
KMYZ 170615Z AUTO 09003KT 10SM SCT065 23/22 A3006 RMK AO2
KMYZ 170555Z AUTO 09003KT 10SM CLR 23/22 A3006 RMK AO2
KMYZ 170535Z AUTO 10003KT 10SM CLR 23/22 A3006 RMK AO2
KMYZ 170515Z AUTO 09003KT 10SM CLR 23/22 A3006 RMK AO2
KMYZ 170455Z AUTO 09003KT 10SM CLR 23/21 A3006 RMK AO2
KMYZ 170435Z AUTO 12003KT 10SM CLR 23/21 A3006 RMK AO2
KMYZ 170415Z AUTO 11003KT 10SM CLR 23/21 A3006 RMK AO2
KMYZ 170355Z AUTO 11003KT 10SM CLR 23/21 A3006 RMK AO2
KMYZ 170335Z AUTO 11004KT 10SM CLR 23/21 A3006 RMK AO2
KMYZ 170315Z AUTO 00000KT 10SM CLR 24/21 A3006 RMK AO2
KMYZ 170255Z AUTO 00000KT 10SM CLR 24/21 A3006 RMK AO2
KMYZ 170235Z AUTO 00000KT 10SM CLR 25/21 A3006 RMK AO2
KMYZ 170215Z AUTO 00000KT 10SM CLR 26/21 A3004 RMK AO2
KMYZ 170155Z AUTO 00000KT 10SM CLR 26/22 A3003 RMK AO2
KMYZ 170135Z AUTO 10003KT 10SM CLR 27/22 A3002 RMK AO2
KMYZ 170115Z AUTO 09005KT 10SM CLR 28/23 A3001 RMK AO2
KMYZ 170055Z AUTO 07009KT 10SM CLR 29/23 A3001 RMK AO2
KMYZ 170035Z AUTO 05007KT 10SM CLR 30/23 A3001 RMK AO2
KMYZ 170015Z AUTO 05006KT 10SM CLR 30/23 A3001 RMK AO2
KMYZ 162355Z AUTO 04005KT 10SM CLR 30/22 A3001 RMK AO2
KMYZ 162335Z AUTO 01005KT 10SM CLR 31/23 A3001 RMK AO2 LTG DSNT E
KMYZ 162315Z AUTO 01005KT 10SM CLR 31/23 A3002 RMK AO2
KMYZ 162255Z AUTO 34004KT 10SM VCTS SCT050 30/23 A3003 RMK AO2 LTG DSNT N
KMYZ 162235Z AUTO 36004KT 10SM SCT050 SCT065 BKN080 30/23 A3003 RMK AO2
KMYZ 162215Z AUTO 36003KT 10SM BKN050 BKN065 OVC080 30/23 A3002 RMK AO2 LTG DSNT N
KMYZ 162155Z AUTO 35004KT 10SM OVC050 30/22 A3004 RMK AO2 LTG DSNT NW
KMYZ 162135Z AUTO 00000KT 10SM BKN050 31/22 A3002 RMK AO2 LTG DSNT NW
KMYZ 162115Z AUTO 00000KT 10SM SCT110 31/21 A3002 RMK AO2
KMYZ 162055Z AUTO 00000KT 10SM BKN110 32/21 A3002 RMK AO2 LTG DSNT W AND NW
KMYZ 162035Z AUTO 05004KT 10SM BKN049 BKN070 OVC095 32/21 A3003 RMK AO2 LTG DSNT W
KMYZ 162015Z AUTO 14004KT 10SM SCT049 32/21 A3004 RMK AO2
KMYZ 161955Z AUTO 00000KT 10SM SCT047 SCT070 32/21 A3004 RMK AO2
KMYZ 161935Z AUTO 12003KT 10SM SCT045 BKN070 31/21 A3005 RMK AO2 LTG DSNT W
KMYZ 161915Z AUTO 10003KT 10SM SCT045 BKN050 32/21 A3006 RMK AO2
KMYZ 161855Z AUTO 09005KT 10SM SCT045 31/21 A3006 RMK AO2
KMYZ 161835Z AUTO 00000KT 10SM CLR 31/21 A3007 RMK AO2
KMYZ 161815Z AUTO 09003KT 10SM CLR 31/21 A3007 RMK AO2
KMYZ 161755Z AUTO 12005KT 10SM CLR 31/21 A3007 RMK AO2
KMYZ 161735Z AUTO 09005KT 10SM CLR 31/21 A3008 RMK AO2
KMYZ 161715Z AUTO 00000KT 10SM CLR 30/21 A3008 RMK AO2
KMYZ 161655Z AUTO 00000KT 10SM CLR 30/21 A3008 RMK AO2
KMYZ 161635Z AUTO 10003KT 10SM CLR 30/20 A3008 RMK AO2
KMYZ 161615Z AUTO 15004KT 10SM CLR 29/20 A3008 RMK AO2
KMYZ 161555Z AUTO 13005KT 10SM CLR 29/20 A3008 RMK AO2
KMYZ 161535Z AUTO 00000KT 10SM CLR 28/20 A3009 RMK AO2
KMYZ 161515Z AUTO 00000KT 10SM CLR 28/20 A3009 RMK AO2
KMYZ 161455Z AUTO 00000KT 10SM CLR 27/21 A3009 RMK AO2
KMYZ 161435Z AUTO 00000KT 10SM CLR 26/21 A3009 RMK AO2
KMYZ 161415Z AUTO 00000KT 10SM CLR 26/21 A3009 RMK AO2
KMYZ 161355Z AUTO 00000KT 10SM CLR 26/22 A3008 RMK AO2
KMYZ 161335Z AUTO 00000KT 10SM CLR 25/22 A3008 RMK AO2
KMYZ 161315Z AUTO 00000KT 10SM SCT049 SCT075 24/22 A3008 RMK AO2
KMYZ 161255Z AUTO 26003KT 10SM BKN049 BKN075 23/22 A3008 RMK AO2
KMYZ 161235Z AUTO 00000KT 10SM CLR 23/21 A3008 RMK AO2 LTG DSNT SW
KMYZ 161215Z AUTO 00000KT 10SM CLR 22/21 A3007 RMK AO2
KMYZ 161155Z AUTO 20003KT 10SM SCT070 21/21 A3006 RMK AO2 LTG DSNT SW
KMYZ 161135Z AUTO 00000KT 10SM CLR 21/20 A3006 RMK AO2
KMYZ 161115Z AUTO 00000KT 10SM SCT100 21/20 A3005 RMK AO2 LTG DSNT SE
KMYZ 161055Z AUTO 00000KT 10SM SCT100 21/21 A3004 RMK AO2
KMYZ 161035Z AUTO 34004KT 10SM CLR 21/21 A3004 RMK AO2
KMYZ 161015Z AUTO 00000KT 10SM CLR 21/20 A3003 RMK AO2
KMYZ 160955Z AUTO 00000KT 10SM CLR 22/20 A3003 RMK AO2
KMYZ 160935Z AUTO 00000KT 10SM CLR 22/20 A3002 RMK AO2
KMYZ 160915Z AUTO 00000KT 10SM CLR 23/20 A3002 RMK AO2 LTG DSNT SW
KMYZ 160855Z AUTO 00000KT 10SM CLR 23/21 A3002 RMK AO2
KMYZ 160835Z AUTO 00000KT 10SM SCT120 22/21 A3003 RMK AO2
KMYZ 160815Z AUTO 00000KT 10SM SCT120 23/21 A3003 RMK AO2
KMYZ 160755Z AUTO 00000KT 10SM CLR 23/21 A3003 RMK AO2
KMYZ 160735Z AUTO 10003KT 10SM CLR 23/21 A3003 RMK AO2
KMYZ 160715Z AUTO 00000KT 10SM SCT120 23/21 A3004 RMK AO2
KMYZ 160655Z AUTO 00000KT 10SM SCT120 23/21 A3004 RMK AO2
KMYZ 160635Z AUTO 10003KT 10SM SCT120 23/21 A3004 RMK AO2 LTG DSNT SW
KMYZ 160615Z AUTO 13003KT 10SM CLR 23/21 A3004 RMK AO2
KMYZ 160555Z AUTO 10003KT 10SM CLR 23/21 A3004 RMK AO2
KMYZ 160535Z AUTO 00000KT 10SM CLR 23/22 A3004 RMK AO2
KMYZ 160515Z AUTO 00000KT 10SM CLR 23/22 A3004 RMK AO2
KMYZ 160455Z AUTO 00000KT 10SM CLR 23/22 A3004 RMK AO2
KMYZ 160435Z AUTO 00000KT 10SM CLR 23/22 A3003 RMK AO2
KMYZ 160415Z AUTO 00000KT 10SM CLR 24/22 A3003 RMK AO2
KMYZ 160355Z AUTO 00000KT 10SM CLR 24/23 A3003 RMK AO2
KMYZ 160335Z AUTO 00000KT 10SM CLR 24/22 A3002 RMK AO2
KMYZ 160315Z AUTO 00000KT 10SM CLR 25/23 A3002 RMK AO2
KMYZ 160255Z AUTO 00000KT 10SM CLR 26/23 A3002 RMK AO2
KMYZ 160235Z AUTO 00000KT 10SM CLR 26/23 A3001 RMK AO2
KMYZ 160215Z AUTO 19003KT 10SM CLR 27/23 A3000 RMK AO2
KMYZ 160155Z AUTO 09003KT 10SM CLR 28/23 A2999 RMK AO2
KMYZ 160135Z AUTO 09003KT 10SM SCT048 28/23 A2999 RMK AO2
KMYZ 160115Z AUTO 07003KT 10SM CLR 29/23 A2998 RMK AO2
KMYZ 160055Z AUTO 06003KT 10SM CLR 29/23 A2998 RMK AO2 LTG DSNT W
KMYZ 160035Z AUTO 06003KT 10SM CLR 30/23 A2997 RMK AO2
KMYZ 160015Z AUTO 00000KT 10SM CLR 30/23 A2998 RMK AO2
KMYZ 152355Z AUTO 05003KT 10SM CLR 30/23 A2997 RMK AO2
KMYZ 152335Z AUTO 07003KT 10SM CLR 31/23 A2998 RMK AO2